Time;durP1;ratioP1;P1;durP2;ratioP2;P2;SDS_P1;SDS_P2;PMS_P1;PMS_P2;Temp;Humidity;BMP_temperature;BMP_pressure;BME280_temperature;BME280_humidity;BME280_pressure;Samples;Min_cycle;Max_cycle;Signal;HPM_P1;HPM_P2
2023/08/18 00:01:29;;;;;;;9.38;3.72;;;17.00;99.90;;;;;;5078242;28;20067;-70
2023/08/18 00:03:56;;;;;;;5.13;3.25;;;17.00;99.90;;;;;;5041860;28;20048;-70
2023/08/18 00:06:21;;;;;;;7.90;3.25;;;17.00;99.90;;;;;;5060176;28;20041;-69
2023/08/18 00:08:50;;;;;;;8.65;4.47;;;17.00;99.90;;;;;;5077945;28;20043;-69
2023/08/18 00:11:15;;;;;;;6.75;3.15;;;16.90;99.90;;;;;;5057800;28;20113;-69
2023/08/18 00:13:41;;;;;;;6.18;3.83;;;16.90;99.90;;;;;;5060006;28;20044;-68
2023/08/18 00:16:07;;;;;;;10.07;3.65;;;16.90;99.90;;;;;;5075206;28;20078;-68
2023/08/18 00:18:32;;;;;;;5.30;3.28;;;16.90;99.90;;;;;;5078305;28;20051;-68
2023/08/18 00:20:58;;;;;;;6.75;3.30;;;16.90;99.90;;;;;;5075704;28;20048;-69
2023/08/18 00:23:24;;;;;;;8.52;3.35;;;16.90;99.90;;;;;;5059643;28;20056;-69
2023/08/18 00:25:50;;;;;;;10.55;3.72;;;16.90;99.90;;;;;;5042121;28;20051;-70
2023/08/18 00:28:15;;;;;;;9.60;4.60;;;16.90;99.90;;;;;;5058130;28;20107;-69
2023/08/18 00:30:41;;;;;;;6.50;3.70;;;16.90;99.90;;;;;;5060127;28;20059;-69
2023/08/18 00:33:07;;;;;;;10.15;4.00;;;16.90;99.90;;;;;;5057237;28;20073;-68
2023/08/18 00:35:34;;;;;;;9.93;3.97;;;16.90;99.90;;;;;;5078135;28;20098;-69
2023/08/18 00:37:59;;;;;;;9.63;4.10;;;16.80;99.90;;;;;;5057359;28;20041;-69
2023/08/18 00:40:25;;;;;;;11.25;3.70;;;16.90;99.90;;;;;;5059570;28;20045;-70
2023/08/18 00:42:52;;;;;;;10.85;3.65;;;16.90;99.90;;;;;;5076761;28;20040;-68
2023/08/18 00:45:17;;;;;;;7.57;3.53;;;16.90;99.90;;;;;;5058453;28;20431;-69
2023/08/18 00:47:44;;;;;;;14.10;3.70;;;16.80;99.90;;;;;;5060231;28;20112;-69
2023/08/18 00:50:11;;;;;;;11.70;3.88;;;16.80;99.90;;;;;;5075095;28;20049;-69
2023/08/18 00:52:42;;;;;;;9.70;3.70;;;16.80;99.90;;;;;;5059693;28;20052;-67
2023/08/18 00:55:10;;;;;;;9.60;3.75;;;16.80;99.90;;;;;;5074920;28;20054;-68
2023/08/18 00:57:38;;;;;;;6.88;3.58;;;16.80;99.90;;;;;;5059750;28;20497;-68
2023/08/18 01:00:07;;;;;;;7.72;3.53;;;16.80;99.90;;;;;;5059097;28;20048;-69
2023/08/18 01:02:36;;;;;;;8.50;3.50;;;16.80;99.90;;;;;;5057182;28;20113;-70
2023/08/18 01:05:02;;;;;;;9.07;3.25;;;16.80;99.90;;;;;;5059612;28;20041;-69
2023/08/18 01:07:28;;;;;;;7.55;3.28;;;16.80;99.90;;;;;;5074919;28;20044;-69
2023/08/18 01:09:54;;;;;;;5.93;3.20;;;16.80;99.90;;;;;;5059376;28;20051;-70
2023/08/18 01:12:39;;;;;;;9.15;3.28;;;16.80;99.90;;;;;;5074780;28;20044;-69
2023/08/18 01:15:21;;;;;;;9.10;3.60;;;16.80;99.90;;;;;;5076526;28;20054;-69
2023/08/18 01:18:01;;;;;;;8.50;3.10;;;16.80;99.90;;;;;;5077554;28;20059;-69
2023/08/18 01:20:27;;;;;;;7.95;3.75;;;16.80;99.90;;;;;;5074585;28;20045;-69
2023/08/18 01:22:57;;;;;;;9.90;3.05;;;16.80;99.90;;;;;;5058878;28;20059;-70
2023/08/18 01:25:24;;;;;;;7.70;2.88;;;16.80;99.90;;;;;;5077555;28;20052;-69
2023/08/18 01:27:51;;;;;;;6.05;3.38;;;16.80;99.90;;;;;;5063155;28;20076;-70
2023/08/18 01:30:20;;;;;;;5.68;2.92;;;16.80;99.90;;;;;;5081049;28;20072;-68
2023/08/18 01:32:52;;;;;;;10.52;2.70;;;16.80;99.90;;;;;;5060863;28;20071;-69
2023/08/18 01:35:20;;;;;;;7.40;2.70;;;16.80;99.90;;;;;;5081470;28;20160;-70
2023/08/18 01:37:49;;;;;;;12.13;2.75;;;16.80;99.90;;;;;;5078435;28;20052;-70
2023/08/18 01:40:16;;;;;;;6.93;3.13;;;16.80;99.90;;;;;;5081567;28;20032;-69
2023/08/18 01:42:45;;;;;;;4.78;2.50;;;16.70;99.90;;;;;;5079747;28;20055;-69
2023/08/18 01:45:11;;;;;;;8.70;2.78;;;16.70;99.90;;;;;;5061970;28;20102;-69
2023/08/18 01:47:38;;;;;;;7.13;2.78;;;16.70;99.90;;;;;;5081065;28;20121;-69
2023/08/18 01:50:04;;;;;;;6.20;2.90;;;16.70;99.90;;;;;;5078160;28;20044;-69
2023/08/18 01:52:29;;;;;;;4.80;2.78;;;16.70;99.90;;;;;;5062879;28;20068;-68
2023/08/18 01:54:55;;;;;;;9.30;2.92;;;16.70;99.90;;;;;;5077833;28;20056;-69
2023/08/18 01:57:21;;;;;;;6.15;3.03;;;16.70;99.90;;;;;;5062766;28;20045;-70
2023/08/18 01:59:46;;;;;;;6.40;2.60;;;16.70;99.90;;;;;;5079061;28;20047;-69
2023/08/18 02:02:12;;;;;;;12.30;3.58;;;16.70;99.90;;;;;;5079826;28;20036;-69
2023/08/18 02:04:38;;;;;;;6.18;3.10;;;16.80;99.90;;;;;;5062115;28;20106;-69
2023/08/18 02:07:04;;;;;;;7.47;3.13;;;16.70;99.90;;;;;;5043229;28;20036;-69
2023/08/18 02:09:30;;;;;;;6.30;3.63;;;16.80;99.90;;;;;;5062862;28;20049;-69
2023/08/18 02:11:55;;;;;;;7.40;3.30;;;16.70;99.90;;;;;;5077777;28;20123;-70
2023/08/18 02:14:21;;;;;;;5.00;2.92;;;16.70;99.90;;;;;;5080459;28;20127;-68
2023/08/18 02:16:48;;;;;;;6.18;3.60;;;16.70;99.90;;;;;;5043372;28;20051;-69
2023/08/18 02:19:14;;;;;;;5.90;2.95;;;16.70;99.90;;;;;;5079783;28;20047;-69
2023/08/18 02:21:39;;;;;;;6.65;3.50;;;16.70;99.90;;;;;;5061877;28;20045;-70
2023/08/18 02:24:05;;;;;;;5.32;3.08;;;16.70;99.90;;;;;;5060080;28;20074;-70
2023/08/18 02:26:31;;;;;;;5.90;3.30;;;16.70;99.90;;;;;;5080085;28;20122;-69
2023/08/18 02:28:57;;;;;;;5.25;3.10;;;16.70;99.90;;;;;;5077347;28;20048;-69
2023/08/18 02:31:22;;;;;;;10.40;3.70;;;16.70;99.90;;;;;;5080106;28;20625;-69
2023/08/18 02:33:48;;;;;;;6.53;3.90;;;16.70;99.90;;;;;;5077566;28;20044;-69
2023/08/18 02:36:14;;;;;;;9.50;4.03;;;16.70;99.90;;;;;;5061371;28;20458;-69
2023/08/18 02:38:40;;;;;;;10.02;4.07;;;16.70;99.90;;;;;;5061237;28;20048;-69
2023/08/18 02:41:06;;;;;;;6.68;4.13;;;16.70;99.90;;;;;;5059839;28;20040;-69
2023/08/18 02:43:32;;;;;;;7.03;3.97;;;16.70;99.90;;;;;;5079969;28;20063;-69
2023/08/18 02:46:00;;;;;;;7.18;4.78;;;16.70;99.90;;;;;;5058951;28;20041;-69
2023/08/18 02:48:27;;;;;;;10.27;4.75;;;16.70;99.90;;;;;;5079922;28;20040;-69
2023/08/18 02:51:05;;;;;;;7.95;4.22;;;16.70;99.90;;;;;;5059286;28;20040;-68
2023/08/18 02:53:32;;;;;;;7.57;4.60;;;16.70;99.90;;;;;;5061082;28;20514;-70
2023/08/18 02:56:00;;;;;;;8.82;4.50;;;16.70;99.90;;;;;;5044801;28;20387;-69
2023/08/18 02:58:28;;;;;;;12.07;4.97;;;16.70;99.90;;;;;;5077175;28;20052;-69
2023/08/18 03:00:55;;;;;;;9.82;4.75;;;16.70;99.90;;;;;;5061532;28;20146;-70
2023/08/18 03:03:27;;;;;;;12.10;4.72;;;16.70;99.90;;;;;;5076762;28;20051;-69
2023/08/18 03:05:53;;;;;;;8.77;4.70;;;16.70;99.90;;;;;;5044598;28;20316;-69
2023/08/18 03:08:18;;;;;;;11.95;4.95;;;16.70;99.90;;;;;;5059482;28;20068;-69
2023/08/18 03:11:02;;;;;;;14.23;5.13;;;16.70;99.90;;;;;;5078616;28;20467;-69
2023/08/18 03:13:28;;;;;;;12.63;5.40;;;16.70;99.90;;;;;;5061227;28;20511;-69
2023/08/18 03:15:54;;;;;;;10.68;5.38;;;16.70;99.90;;;;;;5076452;28;20119;-70
2023/08/18 03:18:20;;;;;;;15.07;5.50;;;16.70;99.90;;;;;;5079351;28;20518;-69
2023/08/18 03:20:47;;;;;;;14.85;6.00;;;16.70;99.90;;;;;;5041687;28;20044;-69
2023/08/18 03:23:19;;;;;;;12.25;4.68;;;16.70;99.90;;;;;;5060447;28;20059;-69
2023/08/18 03:25:45;;;;;;;16.95;5.25;;;16.70;99.90;;;;;;5077831;28;20056;-70
2023/08/18 03:28:11;;;;;;;19.30;5.25;;;16.70;99.90;;;;;;5077334;28;20076;-69
2023/08/18 03:30:40;;;;;;;10.38;5.10;;;16.60;99.90;;;;;;5061096;28;20099;-70
2023/08/18 03:33:06;;;;;;;11.98;5.28;;;16.70;99.90;;;;;;5058242;28;20051;-69
2023/08/18 03:35:35;;;;;;;12.25;5.25;;;16.70;99.90;;;;;;5060930;28;20064;-69
2023/08/18 03:38:04;;;;;;;10.38;4.95;;;16.70;99.90;;;;;;5076435;28;20052;-69
2023/08/18 03:40:30;;;;;;;10.13;5.78;;;16.70;99.90;;;;;;5078503;28;20068;-69
2023/08/18 03:42:56;;;;;;;10.07;5.53;;;16.60;99.90;;;;;;5078201;28;20049;-69
2023/08/18 03:45:22;;;;;;;9.80;5.63;;;16.60;99.90;;;;;;5059029;28;20522;-69
2023/08/18 03:47:50;;;;;;;11.18;5.30;;;16.70;99.90;;;;;;5077959;28;20079;-69
2023/08/18 03:50:15;;;;;;;9.15;4.63;;;16.70;99.90;;;;;;5075935;28;20442;-69
2023/08/18 03:52:41;;;;;;;10.95;5.20;;;16.70;99.90;;;;;;5078328;28;20070;-69
2023/08/18 03:55:09;;;;;;;10.75;5.53;;;16.70;99.90;;;;;;5057945;28;20052;-70
2023/08/18 03:57:35;;;;;;;13.30;5.32;;;16.70;99.90;;;;;;5078194;28;20047;-70
2023/08/18 04:00:01;;;;;;;14.07;5.03;;;16.60;99.90;;;;;;5042901;28;20076;-70
2023/08/18 04:02:27;;;;;;;12.60;5.43;;;16.70;99.90;;;;;;5075639;28;20048;-69
2023/08/18 04:04:55;;;;;;;8.35;5.28;;;16.70;99.90;;;;;;5077451;23;20117;-69
2023/08/18 04:07:21;;;;;;;12.60;5.00;;;16.70;99.90;;;;;;5058529;28;20123;-70
2023/08/18 04:09:47;;;;;;;10.82;4.90;;;16.70;99.90;;;;;;5058844;28;20076;-70
2023/08/18 04:12:13;;;;;;;10.73;4.50;;;16.70;99.90;;;;;;5057289;28;20045;-70
2023/08/18 04:14:38;;;;;;;9.68;5.28;;;16.70;99.90;;;;;;5060486;28;20045;-71
2023/08/18 04:17:04;;;;;;;7.47;4.93;;;16.70;99.90;;;;;;5057770;28;20051;-69
2023/08/18 04:19:30;;;;;;;8.70;4.75;;;16.70;99.90;;;;;;5058427;28;20049;-69
2023/08/18 04:21:56;;;;;;;9.05;5.10;;;16.70;99.90;;;;;;5060371;28;20045;-70
2023/08/18 04:24:28;;;;;;;7.93;5.03;;;16.70;99.90;;;;;;5057210;28;20037;-69
2023/08/18 04:26:59;;;;;;;12.23;5.03;;;16.70;99.90;;;;;;5058706;28;20756;-69
2023/08/18 04:29:26;;;;;;;7.55;5.18;;;16.70;99.90;;;;;;5057016;28;20319;-71
2023/08/18 04:31:52;;;;;;;11.32;4.95;;;16.70;99.90;;;;;;5060089;28;20485;-70
2023/08/18 04:34:18;;;;;;;10.45;4.97;;;16.70;99.90;;;;;;5059137;28;20052;-70
2023/08/18 04:36:44;;;;;;;7.40;4.55;;;16.70;99.90;;;;;;5058843;28;20052;-70
2023/08/18 04:39:11;;;;;;;12.82;4.68;;;16.70;99.90;;;;;;5058277;28;20053;-70
2023/08/18 04:41:36;;;;;;;12.48;5.93;;;16.70;99.90;;;;;;5057931;28;20044;-69
2023/08/18 04:44:05;;;;;;;7.32;5.03;;;16.70;99.90;;;;;;5059845;28;20052;-69
2023/08/18 04:46:31;;;;;;;14.52;5.50;;;16.70;99.90;;;;;;5057369;28;20037;-69
2023/08/18 04:48:57;;;;;;;14.85;6.07;;;16.70;99.90;;;;;;5058026;28;20060;-69
2023/08/18 04:51:23;;;;;;;10.38;5.15;;;16.60;99.90;;;;;;5058332;28;20095;-70
2023/08/18 04:53:49;;;;;;;10.05;5.10;;;16.70;99.90;;;;;;5058789;28;20040;-68
2023/08/18 04:56:18;;;;;;;12.20;5.35;;;16.70;99.90;;;;;;5059880;28;20124;-69
2023/08/18 04:58:43;;;;;;;12.55;4.93;;;16.70;99.90;;;;;;5057905;28;20045;-69
2023/08/18 05:01:09;;;;;;;11.60;5.38;;;16.70;99.90;;;;;;5058011;28;20103;-69
2023/08/18 05:03:35;;;;;;;9.15;5.45;;;16.70;99.90;;;;;;5057585;28;20044;-69
2023/08/18 05:06:08;;;;;;;13.23;5.53;;;16.70;99.90;;;;;;5040461;28;20190;-70
2023/08/18 05:08:37;;;;;;;9.52;4.82;;;16.60;99.90;;;;;;5057344;28;20045;-69
2023/08/18 05:11:11;;;;;;;10.85;5.55;;;16.70;99.90;;;;;;5039256;28;20108;-69
2023/08/18 05:13:41;;;;;;;12.55;5.90;;;16.70;99.90;;;;;;5057385;28;20068;-69
2023/08/18 05:16:10;;;;;;;9.18;5.35;;;16.70;99.90;;;;;;5055931;28;20071;-70
2023/08/18 05:18:38;;;;;;;14.30;5.95;;;16.70;99.90;;;;;;5058417;28;20072;-70
2023/08/18 05:21:04;;;;;;;9.40;5.07;;;16.70;99.90;;;;;;5035031;28;20037;-69
2023/08/18 05:23:30;;;;;;;11.65;5.20;;;16.70;99.90;;;;;;5036712;28;20164;-70
2023/08/18 05:25:56;;;;;;;7.07;4.72;;;16.70;99.90;;;;;;5037645;28;20390;-70
2023/08/18 05:28:28;;;;;;;11.65;5.90;;;16.70;99.90;;;;;;5035204;28;20067;-68
2023/08/18 05:30:54;;;;;;;7.68;5.15;;;16.70;99.90;;;;;;5036928;28;20049;-68
2023/08/18 05:33:20;;;;;;;8.75;5.25;;;16.70;99.90;;;;;;5035862;28;20064;-70
2023/08/18 05:35:47;;;;;;;9.73;5.13;;;16.70;99.90;;;;;;5038527;28;20042;-70
2023/08/18 05:38:13;;;;;;;7.68;5.22;;;16.70;99.90;;;;;;5034946;28;20056;-69
2023/08/18 05:40:44;;;;;;;9.38;5.05;;;16.70;99.90;;;;;;5038235;28;20096;-69
2023/08/18 05:43:11;;;;;;;11.45;5.18;;;16.70;99.90;;;;;;5036578;28;20123;-69
2023/08/18 05:45:36;;;;;;;9.52;5.70;;;16.70;99.90;;;;;;5036231;28;20050;-70
2023/08/18 05:48:06;;;;;;;9.38;4.93;;;16.70;99.90;;;;;;5038664;28;20496;-70
2023/08/18 05:50:32;;;;;;;14.82;6.03;;;16.70;99.90;;;;;;5018275;28;20041;-69
2023/08/18 05:53:04;;;;;;;8.23;5.25;;;16.70;99.90;;;;;;5038468;28;20440;-69
2023/08/18 05:55:31;;;;;;;10.48;5.43;;;16.70;99.90;;;;;;5036635;28;20049;-70
2023/08/18 05:58:03;;;;;;;11.70;5.90;;;16.70;99.90;;;;;;5037223;28;20052;-70
2023/08/18 06:00:31;;;;;;;13.15;5.35;;;16.70;99.90;;;;;;5036840;28;20116;-70
2023/08/18 06:02:57;;;;;;;12.40;5.90;;;16.70;99.90;;;;;;5034217;28;20049;-68
2023/08/18 06:05:26;;;;;;;9.75;5.55;;;16.70;99.90;;;;;;5020405;28;20050;-69
2023/08/18 06:07:52;;;;;;;9.98;5.65;;;16.70;99.90;;;;;;5037235;28;20053;-70
2023/08/18 06:10:18;;;;;;;10.00;5.07;;;16.80;99.90;;;;;;5041010;28;20253;-69
2023/08/18 06:12:44;;;;;;;11.85;5.72;;;16.80;99.90;;;;;;5059156;28;20460;-70
2023/08/18 06:15:10;;;;;;;9.20;6.03;;;16.80;99.90;;;;;;5043184;28;20108;-69
2023/08/18 06:17:36;;;;;;;15.20;5.70;;;16.80;99.90;;;;;;5061030;28;20045;-70
2023/08/18 06:20:03;;;;;;;8.20;5.47;;;16.80;99.90;;;;;;5056619;28;20041;-71
2023/08/18 06:22:28;;;;;;;10.05;5.32;;;16.80;99.90;;;;;;5060007;28;20127;-71
2023/08/18 06:24:54;;;;;;;13.55;5.97;;;16.80;99.90;;;;;;5070760;28;20583;-70
2023/08/18 06:27:20;;;;;;;14.25;6.55;;;16.80;99.90;;;;;;5061305;28;20449;-70
2023/08/18 06:29:46;;;;;;;10.85;5.70;;;16.80;99.90;;;;;;5058325;28;20045;-70
2023/08/18 06:32:11;;;;;;;9.20;5.22;;;16.80;99.90;;;;;;5059522;28;20052;-71
2023/08/18 06:34:37;;;;;;;11.23;6.03;;;16.80;99.90;;;;;;5043510;28;20044;-70
2023/08/18 06:37:03;;;;;;;13.75;6.07;;;16.90;99.90;;;;;;5059352;28;20041;-70
2023/08/18 06:39:32;;;;;;;8.30;5.80;;;16.90;99.90;;;;;;5061464;28;20045;-69
2023/08/18 06:41:58;;;;;;;10.07;6.20;;;16.90;99.90;;;;;;5058380;28;20056;-70
2023/08/18 06:44:26;;;;;;;12.10;6.50;;;16.90;99.90;;;;;;5059470;28;20408;-70
2023/08/18 06:46:52;;;;;;;13.93;6.55;;;16.90;99.90;;;;;;5057211;28;20093;-70
2023/08/18 06:49:18;;;;;;;11.82;6.47;;;16.90;99.90;;;;;;5058776;28;20052;-70
2023/08/18 06:51:43;;;;;;;14.77;6.80;;;17.00;99.90;;;;;;5059180;28;20106;-71
2023/08/18 06:54:09;;;;;;;9.85;6.47;;;17.00;99.90;;;;;;5058650;28;20048;-71
2023/08/18 06:56:35;;;;;;;10.45;6.65;;;17.00;99.90;;;;;;5059485;28;20045;-70
2023/08/18 06:59:00;;;;;;;13.63;6.72;;;17.00;99.90;;;;;;5058348;28;20068;-71
2023/08/18 07:01:26;;;;;;;14.68;6.72;;;17.10;99.90;;;;;;5042439;28;20052;-70
2023/08/18 07:03:55;;;;;;;12.35;6.75;;;17.10;99.90;;;;;;5056845;28;20064;-69
2023/08/18 07:06:21;;;;;;;13.50;7.40;;;17.10;99.90;;;;;;5060144;28;20202;-69
2023/08/18 07:08:47;;;;;;;19.33;8.35;;;17.20;99.90;;;;;;5058455;28;20056;-69
2023/08/18 07:11:12;;;;;;;13.68;7.47;;;17.10;99.90;;;;;;5058632;28;20045;-69
2023/08/18 07:13:38;;;;;;;16.20;7.70;;;17.20;99.90;;;;;;5058881;28;20053;-69
2023/08/18 07:16:09;;;;;;;17.90;8.23;;;17.20;99.90;;;;;;5057106;28;20045;-69
2023/08/18 07:18:35;;;;;;;13.48;7.85;;;17.20;99.90;;;;;;5060010;28;20687;-70
2023/08/18 07:21:01;;;;;;;19.05;8.68;;;17.20;99.90;;;;;;5056307;28;20075;-69
2023/08/18 07:23:26;;;;;;;17.20;7.85;;;17.20;99.90;;;;;;5056434;28;20127;-69
2023/08/18 07:25:52;;;;;;;15.98;8.35;;;17.30;99.90;;;;;;5058712;28;20037;-67
2023/08/18 07:28:27;;;;;;;19.35;8.23;;;17.30;99.90;;;;;;5058793;28;20056;-66
2023/08/18 07:30:52;;;;;;;13.90;7.72;;;17.30;99.90;;;;;;5060901;28;20052;-66
2023/08/18 07:33:18;;;;;;;18.60;9.05;;;17.40;99.90;;;;;;5058107;28;20033;-67
2023/08/18 07:35:47;;;;;;;19.33;7.95;;;17.40;99.90;;;;;;5060280;28;20048;-67
2023/08/18 07:38:13;;;;;;;17.65;8.10;;;17.50;99.90;;;;;;5058563;28;20045;-67
2023/08/18 07:40:38;;;;;;;16.85;9.20;;;17.50;99.90;;;;;;5041519;28;20052;-68
2023/08/18 07:43:04;;;;;;;16.20;8.40;;;17.60;99.90;;;;;;5059455;28;20056;-69
2023/08/18 07:45:33;;;;;;;14.98;8.63;;;17.50;99.90;;;;;;5039683;28;20104;-69
2023/08/18 07:47:59;;;;;;;15.15;8.23;;;17.50;99.90;;;;;;5059351;28;20045;-69
2023/08/18 07:50:31;;;;;;;17.33;8.07;;;17.40;99.90;;;;;;5036531;28;20071;-69
2023/08/18 07:52:56;;;;;;;17.80;8.43;;;17.40;99.90;;;;;;5058000;28;20048;-69
2023/08/18 07:55:22;;;;;;;18.95;8.27;;;17.40;99.90;;;;;;5055686;28;20050;-70
2023/08/18 07:57:48;;;;;;;17.60;8.50;;;17.40;99.90;;;;;;5058642;28;20070;-69
2023/08/18 08:00:17;;;;;;;16.20;8.57;;;17.40;99.90;;;;;;5057489;28;20048;-69
2023/08/18 08:02:44;;;;;;;18.65;9.02;;;17.30;99.90;;;;;;5055459;28;20052;-68
2023/08/18 08:05:10;;;;;;;17.90;8.80;;;17.40;99.90;;;;;;5058788;28;20101;-69
2023/08/18 08:07:40;;;;;;;23.48;9.32;;;17.40;99.90;;;;;;5055314;28;20033;-69
2023/08/18 08:10:06;;;;;;;19.00;9.02;;;17.40;99.90;;;;;;5058181;28;20059;-69
2023/08/18 08:12:34;;;;;;;21.55;9.75;;;17.50;99.90;;;;;;5075937;28;20419;-69
2023/08/18 08:15:03;;;;;;;22.48;8.50;;;17.50;99.90;;;;;;5061017;28;20087;-70
2023/08/18 08:17:30;;;;;;;22.00;10.25;;;17.70;99.90;;;;;;5079180;28;20079;-70
2023/08/18 08:19:56;;;;;;;20.15;9.35;;;17.70;99.90;;;;;;5076957;28;20104;-70
2023/08/18 08:22:23;;;;;;;18.08;9.70;;;17.70;99.90;;;;;;5077972;28;20068;-69
2023/08/18 08:24:50;;;;;;;27.63;10.30;;;17.70;99.90;;;;;;5075120;28;20051;-70
2023/08/18 08:27:17;;;;;;;24.13;9.48;;;17.70;99.90;;;;;;5072754;28;20108;-70
2023/08/18 08:29:43;;;;;;;24.35;10.43;;;17.80;99.90;;;;;;5051731;28;20045;-71
2023/08/18 08:32:09;;;;;;;21.58;10.80;;;17.80;99.90;;;;;;5058320;28;20048;-70
2023/08/18 08:34:39;;;;;;;22.23;10.32;;;17.90;99.90;;;;;;5058551;28;20508;-69
2023/08/18 08:37:04;;;;;;;23.65;9.48;;;17.90;99.90;;;;;;5056768;28;20044;-69
2023/08/18 08:39:30;;;;;;;21.60;9.73;;;18.00;99.90;;;;;;5057357;28;20056;-70
2023/08/18 08:41:56;;;;;;;24.98;10.93;;;18.00;99.90;;;;;;5054830;28;20048;-69
2023/08/18 08:44:23;;;;;;;24.05;10.48;;;18.10;99.90;;;;;;5058864;28;20033;-69
2023/08/18 08:46:49;;;;;;;21.73;10.60;;;18.20;99.90;;;;;;5055576;28;20063;-69
2023/08/18 08:49:16;;;;;;;25.92;10.55;;;18.20;99.90;;;;;;5057062;28;20493;-70
2023/08/18 08:51:46;;;;;;;21.58;10.48;;;18.30;99.90;;;;;;5040733;28;20053;-69
2023/08/18 08:54:16;;;;;;;23.13;10.18;;;18.30;99.90;;;;;;5054972;28;20037;-69
2023/08/18 08:56:43;;;;;;;20.98;10.35;;;18.40;99.90;;;;;;5058851;28;20045;-70
2023/08/18 08:59:10;;;;;;;23.48;10.90;;;18.40;99.90;;;;;;5056105;28;20045;-70
2023/08/18 09:01:36;;;;;;;25.40;11.27;;;18.50;99.90;;;;;;5058703;28;20045;-70
2023/08/18 09:04:03;;;;;;;22.92;10.80;;;18.50;99.90;;;;;;5057197;28;20158;-70
2023/08/18 09:06:29;;;;;;;28.35;10.23;;;18.60;99.90;;;;;;5057601;28;20053;-69
2023/08/18 09:08:57;;;;;;;28.73;10.77;;;18.70;99.90;;;;;;5058521;28;20074;-70
2023/08/18 09:11:47;;;;;;;24.30;9.65;;;18.70;99.90;;;;;;5054950;28;20041;-69
2023/08/18 09:14:18;;;;;;;21.75;9.50;;;18.80;99.90;;;;;;5061301;28;20041;-69
2023/08/18 09:16:45;;;;;;;22.45;9.75;;;18.80;99.90;;;;;;5058540;28;20041;-70
2023/08/18 09:19:12;;;;;;;26.15;9.63;;;18.90;99.90;;;;;;5078266;28;20052;-69
2023/08/18 09:21:40;;;;;;;24.77;9.40;;;18.90;99.90;;;;;;5076844;28;20422;-69
2023/08/18 09:24:07;;;;;;;23.15;9.43;;;18.90;99.90;;;;;;5076454;28;20041;-70
2023/08/18 09:26:34;;;;;;;18.17;9.27;;;19.00;99.90;;;;;;5060624;28;20640;-69
2023/08/18 09:29:00;;;;;;;16.92;9.07;;;19.00;99.90;;;;;;5076351;28;20049;-70
2023/08/18 09:31:25;;;;;;;14.73;9.15;;;19.00;99.90;;;;;;5077730;28;20155;-70
2023/08/18 09:33:51;;;;;;;14.07;8.27;;;19.00;99.90;;;;;;5075575;28;20122;-70
2023/08/18 09:36:20;;;;;;;18.70;8.63;;;19.10;99.90;;;;;;5076629;28;20178;-70
2023/08/18 09:38:46;;;;;;;18.00;9.00;;;19.10;99.90;;;;;;5077980;28;20095;-70
2023/08/18 09:41:12;;;;;;;18.27;8.82;;;19.10;99.90;;;;;;5075178;28;20045;-69
2023/08/18 09:43:42;;;;;;;16.30;8.82;;;19.10;99.90;;;;;;5078552;28;20056;-71
2023/08/18 09:46:12;;;;;;;21.02;9.45;;;19.20;99.90;;;;;;5078305;28;20064;-69
2023/08/18 09:48:39;;;;;;;19.63;10.52;;;19.10;99.90;;;;;;5081186;28;20149;-70
2023/08/18 09:51:09;;;;;;;18.42;8.93;;;19.10;99.90;;;;;;5080241;28;20037;-72
2023/08/18 09:53:45;;;;;;;15.73;9.18;;;19.20;99.90;;;;;;5081647;28;20836;-70
2023/08/18 09:56:16;;;;;;;16.88;8.95;;;19.20;99.90;;;;;;5064737;28;20076;-71
2023/08/18 09:59:10;;;;;;;18.75;8.98;;;19.20;99.90;;;;;;5078515;28;20063;-69
2023/08/18 10:01:37;;;;;;;18.33;8.80;;;19.30;99.90;;;;;;5082200;28;20052;-71
2023/08/18 10:04:03;;;;;;;20.10;8.13;;;19.30;99.90;;;;;;5080776;28;20040;-70
2023/08/18 10:06:36;;;;;;;19.05;9.65;;;19.50;99.90;;;;;;5080938;28;20052;-69
2023/08/18 10:09:01;;;;;;;13.50;7.65;;;19.50;99.90;;;;;;5080928;28;20066;-69
2023/08/18 10:11:27;;;;;;;17.05;9.05;;;19.60;99.90;;;;;;5079549;28;20036;-69
2023/08/18 10:13:56;;;;;;;15.02;8.93;;;19.70;99.90;;;;;;5080637;28;20535;-70
2023/08/18 10:16:28;;;;;;;13.10;8.43;;;19.60;99.90;;;;;;5078160;28;20055;-69
2023/08/18 10:18:55;;;;;;;17.38;8.57;;;19.60;99.90;;;;;;5082119;28;20091;-70
2023/08/18 10:21:22;;;;;;;17.83;10.13;;;19.60;99.90;;;;;;5062831;28;20041;-70
2023/08/18 10:23:50;;;;;;;14.70;8.65;;;19.70;99.90;;;;;;5080507;28;20060;-71
2023/08/18 10:26:16;;;;;;;17.20;8.95;;;19.70;99.90;;;;;;5080506;28;20395;-70
2023/08/18 10:28:42;;;;;;;13.77;8.52;;;19.80;99.90;;;;;;5078071;28;20056;-70
2023/08/18 10:31:11;;;;;;;15.75;9.10;;;19.90;99.90;;;;;;5081712;28;20365;-70
2023/08/18 10:33:49;;;;;;;10.70;7.60;;;19.90;99.90;;;;;;5079211;28;20056;-70
2023/08/18 10:36:28;;;;;;;13.50;8.95;;;20.00;99.90;;;;;;5079847;28;20102;-69
2023/08/18 10:38:54;;;;;;;13.65;8.70;;;20.10;99.90;;;;;;5082081;28;20099;-70
2023/08/18 10:41:29;;;;;;;14.85;9.05;;;20.10;99.90;;;;;;5079077;28;20044;-70
2023/08/18 10:43:57;;;;;;;12.35;8.00;;;20.10;99.90;;;;;;5081794;28;20044;-70
2023/08/18 10:46:34;;;;;;;13.10;8.10;;;20.20;99.90;;;;;;5077775;28;20078;-69
2023/08/18 10:49:00;;;;;;;12.65;8.70;;;20.30;99.90;;;;;;5079953;28;20113;-69
2023/08/18 10:51:27;;;;;;;11.85;9.27;;;20.40;99.90;;;;;;5079558;28;20055;-70
2023/08/18 10:53:53;;;;;;;12.95;9.15;;;20.40;99.90;;;;;;5079766;28;20076;-69
2023/08/18 10:56:21;;;;;;;14.88;10.07;;;20.40;99.90;;;;;;5081442;28;20048;-69
2023/08/18 10:58:47;;;;;;;12.43;8.73;;;20.50;99.90;;;;;;5078638;28;20055;-67
2023/08/18 11:01:15;;;;;;;12.43;9.43;;;20.60;99.90;;;;;;5080132;28;20824;-69
2023/08/18 11:03:41;;;;;;;15.65;10.93;;;20.60;99.90;;;;;;5078612;28;20040;-66
2023/08/18 11:06:07;;;;;;;14.93;9.40;;;20.70;99.90;;;;;;5079230;28;20075;-67
2023/08/18 11:08:34;;;;;;;13.50;9.20;;;20.80;99.90;;;;;;5078851;28;20299;-67
2023/08/18 11:11:00;;;;;;;13.65;8.93;;;20.90;99.90;;;;;;5061379;28;20697;-71
2023/08/18 11:13:30;;;;;;;14.13;9.48;;;20.90;99.90;;;;;;5079542;28;20105;-70
2023/08/18 11:15:56;;;;;;;12.88;9.27;;;21.00;99.90;;;;;;5078197;28;20083;-70
2023/08/18 11:18:23;;;;;;;12.05;9.07;;;21.40;99.90;;;;;;5080634;28;20048;-70
2023/08/18 11:20:51;;;;;;;16.83;10.98;;;21.60;99.90;;;;;;5077152;28;20128;-71
2023/08/18 11:23:20;;;;;;;14.32;10.55;;;21.60;99.90;;;;;;5080593;28;20082;-71
2023/08/18 11:25:46;;;;;;;16.80;11.20;;;21.70;99.90;;;;;;5078696;28;20462;-70
2023/08/18 11:28:15;;;;;;;16.00;10.07;;;21.70;99.90;;;;;;5078065;28;20395;-70
2023/08/18 11:30:43;;;;;;;14.63;10.23;;;21.90;99.90;;;;;;5081063;28;20036;-71
2023/08/18 11:33:11;;;;;;;17.63;12.02;;;22.10;99.90;;;;;;5076627;28;20045;-70
2023/08/18 11:35:36;;;;;;;16.35;10.35;;;22.00;99.90;;;;;;5080747;28;20123;-71
2023/08/18 11:38:03;;;;;;;19.23;11.65;;;22.10;99.90;;;;;;5060581;28;20126;-70
2023/08/18 11:40:35;;;;;;;23.25;12.07;;;22.20;99.90;;;;;;5057629;28;20045;-69
2023/08/18 11:43:01;;;;;;;12.87;9.37;;;22.20;99.90;;;;;;5041356;28;20049;-73
2023/08/18 11:45:26;;;;;;;14.25;10.52;;;22.30;99.90;;;;;;5058371;28;20091;-70
2023/08/18 11:48:01;;;;;;;14.02;10.57;;;22.40;99.90;;;;;;5059192;28;20075;-70
2023/08/18 11:50:38;;;;;;;16.05;10.30;;;22.60;99.90;;;;;;5057063;28;20055;-71
2023/08/18 11:53:06;;;;;;;15.25;10.18;;;22.60;99.90;;;;;;5059530;28;20051;-71
2023/08/18 11:55:35;;;;;;;15.57;11.57;;;22.80;99.90;;;;;;5059360;28;20075;-70
2023/08/18 11:58:05;;;;;;;14.27;10.93;;;22.70;99.90;;;;;;5058033;28;20111;-71
2023/08/18 12:00:35;;;;;;;16.38;12.27;;;22.80;99.90;;;;;;5042654;28;20052;-70
2023/08/18 12:03:06;;;;;;;17.35;11.68;;;22.80;99.90;;;;;;5055770;28;20488;-72
2023/08/18 12:05:32;;;;;;;16.77;12.93;;;22.90;99.90;;;;;;5058582;28;20053;-71
2023/08/18 12:08:01;;;;;;;15.35;11.52;;;22.80;99.90;;;;;;5056697;28;20053;-73
2023/08/18 12:10:26;;;;;;;15.00;11.77;;;22.80;99.90;;;;;;5058043;28;20053;-73
2023/08/18 12:12:57;;;;;;;17.25;11.52;;;22.70;99.90;;;;;;5057378;28;20041;-73
2023/08/18 12:15:27;;;;;;;17.42;11.70;;;22.70;99.90;;;;;;5055439;28;20040;-72
2023/08/18 12:17:56;;;;;;;18.45;11.75;;;22.70;99.90;;;;;;5052281;28;20056;-73
2023/08/18 12:20:24;;;;;;;17.38;12.68;;;22.70;99.90;;;;;;5054869;28;20056;-72
2023/08/18 12:22:55;;;;;;;16.25;11.10;;;22.70;99.90;;;;;;5057968;28;20142;-72
2023/08/18 12:25:22;;;;;;;15.15;10.23;;;22.80;99.90;;;;;;5054920;28;20037;-71
2023/08/18 12:27:49;;;;;;;18.02;10.50;;;22.90;99.90;;;;;;5058520;28;20045;-71
2023/08/18 12:30:15;;;;;;;16.27;11.55;;;22.90;99.90;;;;;;5057557;28;20052;-71
2023/08/18 12:32:44;;;;;;;18.40;11.38;;;23.00;99.90;;;;;;5057055;28;20049;-72
2023/08/18 12:35:13;;;;;;;13.63;9.75;;;23.20;99.90;;;;;;5058078;28;20057;-72
2023/08/18 12:37:41;;;;;;;15.30;10.57;;;23.30;99.90;;;;;;5055726;28;20048;-70
2023/08/18 12:40:10;;;;;;;13.90;11.30;;;23.20;99.90;;;;;;5059502;28;20076;-71